createdAt,value
2023-03-06T00:00:20.463Z,3.60
2023-03-06T00:02:48.533Z,4.30
2023-03-06T00:05:17.294Z,5.00
2023-03-06T00:07:45.742Z,4.17
2023-03-06T00:10:16.794Z,3.90
2023-03-06T00:12:44.796Z,4.47
2023-03-06T00:15:13.411Z,5.57
2023-03-06T00:17:42.107Z,4.60
2023-03-06T00:20:11.986Z,4.37
2023-03-06T00:22:40.343Z,5.63
2023-03-06T00:25:09.938Z,4.60
2023-03-06T00:27:39.399Z,4.03
2023-03-06T00:30:09.532Z,4.50
2023-03-06T00:32:37.550Z,4.23
2023-03-06T00:35:06.572Z,5.90
2023-03-06T00:37:34.606Z,4.30
2023-03-06T00:40:02.810Z,4.60
2023-03-06T00:42:30.960Z,5.70
2023-03-06T00:45:00.356Z,5.00
2023-03-06T00:47:28.533Z,5.03
2023-03-06T00:49:56.569Z,4.80
2023-03-06T00:52:24.638Z,5.20
2023-03-06T00:54:52.960Z,5.17
2023-03-06T00:57:21.021Z,4.47
2023-03-06T00:59:49.069Z,4.77
2023-03-06T01:02:18.522Z,4.70
2023-03-06T01:04:46.629Z,4.87
2023-03-06T01:07:14.725Z,5.17
2023-03-06T01:09:42.805Z,4.60
2023-03-06T01:12:11.073Z,4.47
2023-03-06T01:14:39.688Z,4.87
2023-03-06T01:17:07.788Z,5.67
2023-03-06T01:19:44.122Z,4.90
2023-03-06T01:22:14.990Z,5.40
2023-03-06T01:24:43.040Z,5.37
2023-03-06T01:27:11.203Z,5.50
2023-03-06T01:29:39.438Z,5.83
2023-03-06T01:32:08.073Z,5.47
2023-03-06T01:34:36.133Z,5.20
2023-03-06T01:37:05.562Z,6.00
2023-03-06T01:39:33.631Z,5.30
2023-03-06T01:42:01.691Z,5.87
2023-03-06T01:44:29.797Z,5.10
2023-03-06T01:46:57.850Z,4.80
2023-03-06T01:49:31.425Z,4.27
2023-03-06T01:52:02.895Z,3.90
2023-03-06T01:54:34.977Z,4.77
2023-03-06T01:57:07.982Z,4.37
2023-03-06T01:59:37.776Z,4.60
2023-03-06T02:02:09.717Z,4.07
2023-03-06T02:04:40.611Z,3.70
2023-03-06T02:07:09.718Z,3.90
2023-03-06T02:09:39.903Z,4.00
2023-03-06T02:12:10.952Z,4.50
2023-03-06T02:14:40.322Z,4.93
2023-03-06T02:17:09.646Z,5.73
2023-03-06T02:19:46.684Z,5.00
2023-03-06T02:22:14.778Z,6.00
2023-03-06T02:24:50.925Z,5.00
2023-03-06T02:27:21.131Z,5.50
2023-03-06T02:29:51.447Z,6.40
2023-03-06T02:32:19.641Z,5.13
2023-03-06T02:34:52.383Z,5.50
2023-03-06T02:37:21.287Z,5.03
2023-03-06T02:39:54.834Z,4.70
2023-03-06T02:42:28.835Z,5.57
2023-03-06T02:45:00.056Z,4.57
2023-03-06T02:47:28.376Z,5.30
2023-03-06T02:49:56.378Z,4.63
2023-03-06T02:52:24.522Z,4.33
2023-03-06T02:54:52.615Z,4.10
2023-03-06T02:57:20.830Z,4.60
2023-03-06T02:59:51.334Z,4.50
2023-03-06T03:02:20.013Z,4.83
2023-03-06T03:04:48.200Z,4.07
2023-03-06T03:07:16.653Z,4.27
2023-03-06T03:09:44.996Z,3.63
2023-03-06T03:12:14.030Z,3.90
2023-03-06T03:14:42.079Z,3.67
2023-03-06T03:17:11.623Z,4.00
2023-03-06T03:19:39.727Z,4.20
2023-03-06T03:22:08.344Z,5.33
2023-03-06T03:24:36.419Z,4.40
2023-03-06T03:27:05.291Z,4.07
2023-03-06T03:29:33.831Z,3.03
2023-03-06T03:32:02.270Z,3.70
2023-03-06T03:34:31.796Z,4.10
2023-03-06T03:37:00.000Z,4.20
2023-03-06T03:39:28.118Z,5.97
2023-03-06T03:41:56.319Z,5.20
2023-03-06T03:44:25.223Z,4.60
2023-03-06T03:46:53.916Z,6.27
2023-03-06T03:49:24.279Z,4.70
2023-03-06T03:51:54.844Z,4.60
2023-03-06T03:54:24.907Z,7.43
2023-03-06T03:56:55.089Z,5.67
2023-03-06T03:59:27.895Z,4.30
2023-03-06T04:02:14.757Z,4.60
2023-03-06T04:04:51.688Z,5.17
2023-03-06T04:07:21.344Z,5.60
2023-03-06T04:09:50.456Z,5.77
2023-03-06T04:12:19.420Z,5.47
2023-03-06T04:14:48.423Z,5.20
2023-03-06T04:17:16.940Z,6.03
2023-03-06T04:19:45.826Z,6.20
2023-03-06T04:22:15.055Z,6.27
2023-03-06T04:24:45.053Z,6.80
2023-03-06T04:27:13.243Z,7.57
2023-03-06T04:29:41.517Z,6.00
2023-03-06T04:32:09.977Z,6.50
2023-03-06T04:34:38.355Z,6.30
2023-03-06T04:37:07.680Z,6.27
2023-03-06T04:39:35.958Z,7.83
2023-03-06T04:42:05.774Z,7.07
2023-03-06T04:44:33.895Z,7.47
2023-03-06T04:47:02.131Z,6.30
2023-03-06T04:49:32.768Z,6.57
2023-03-06T04:52:00.939Z,7.53
2023-03-06T04:54:29.015Z,6.63
2023-03-06T04:56:57.491Z,8.20
2023-03-06T04:59:26.986Z,7.20
2023-03-06T05:01:55.529Z,5.83
2023-03-06T05:04:23.576Z,6.40
2023-03-06T05:06:51.665Z,5.43
2023-03-06T05:09:19.831Z,6.80
2023-03-06T05:11:47.883Z,8.50
2023-03-06T05:14:15.970Z,7.67
2023-03-06T05:16:45.479Z,9.07
2023-03-06T05:19:13.634Z,8.30
2023-03-06T05:21:41.792Z,8.30
2023-03-06T05:24:11.112Z,9.10
2023-03-06T05:26:39.227Z,6.97
2023-03-06T05:29:07.312Z,7.13
2023-03-06T05:31:35.448Z,6.23
2023-03-06T05:34:04.949Z,7.10
2023-03-06T05:36:33.095Z,8.40
2023-03-06T05:39:01.193Z,5.17
2023-03-06T05:41:29.374Z,6.17
2023-03-06T05:43:58.014Z,5.97
2023-03-06T05:46:26.596Z,6.80
2023-03-06T05:48:57.380Z,7.57
2023-03-06T05:51:26.963Z,6.93
2023-03-06T05:53:55.302Z,8.00
2023-03-06T05:56:23.626Z,7.67
2023-03-06T05:58:51.694Z,8.73
2023-03-06T06:01:21.624Z,9.00
2023-03-06T06:03:49.777Z,7.87
2023-03-06T06:06:17.908Z,7.80
2023-03-06T06:08:49.588Z,10.67
2023-03-06T06:11:18.446Z,9.83
2023-03-06T06:13:46.528Z,14.10
2023-03-06T06:16:16.780Z,11.53
2023-03-06T06:18:45.166Z,11.50
2023-03-06T06:21:14.559Z,12.00
2023-03-06T06:23:42.910Z,13.10
2023-03-06T06:26:12.617Z,13.07
2023-03-06T06:28:40.723Z,11.70
2023-03-06T06:31:10.629Z,12.43
2023-03-06T06:33:39.122Z,12.60
2023-03-06T06:36:15.547Z,11.30
2023-03-06T06:38:43.690Z,11.27
2023-03-06T06:44:01.998Z,10.17
2023-03-06T06:47:18.194Z,11.20
2023-03-06T06:49:18.798Z,10.73
2023-03-06T06:51:46.899Z,11.50
2023-03-06T06:54:14.947Z,8.60
2023-03-06T06:56:44.373Z,9.33
2023-03-06T06:59:17.353Z,7.80
2023-03-06T07:01:45.768Z,10.40
2023-03-06T07:04:14.233Z,9.00
2023-03-06T07:06:42.362Z,15.57
2023-03-06T07:09:10.746Z,15.63
2023-03-06T07:11:39.147Z,19.10
2023-03-06T07:14:08.651Z,21.57
2023-03-06T07:16:36.754Z,19.70
2023-03-06T07:19:04.895Z,17.50
2023-03-06T07:21:33.302Z,16.10
2023-03-06T07:24:01.781Z,13.83
2023-03-06T07:26:32.705Z,14.93
2023-03-06T07:29:02.266Z,16.00
2023-03-06T07:31:32.011Z,18.40
2023-03-06T07:34:01.120Z,14.43
2023-03-06T07:36:29.988Z,19.67
2023-03-06T07:38:58.138Z,18.50
2023-03-06T07:41:26.171Z,16.90
2023-03-06T07:43:54.298Z,18.30
2023-03-06T07:46:22.355Z,14.87
2023-03-06T07:48:51.895Z,13.40
2023-03-06T07:51:21.410Z,14.20
2023-03-06T07:53:50.456Z,14.37
2023-03-06T07:56:18.555Z,13.40
2023-03-06T07:58:48.564Z,10.43
2023-03-06T08:01:19.693Z,13.70
2023-03-06T08:03:49.946Z,13.70
2023-03-06T08:06:21.414Z,11.37
2023-03-06T08:08:52.408Z,11.97
2023-03-06T08:11:22.780Z,14.50
2023-03-06T08:13:52.822Z,13.57
2023-03-06T08:16:21.705Z,12.47
2023-03-06T08:18:49.835Z,13.77
2023-03-06T08:21:21.139Z,13.00
2023-03-06T08:23:49.661Z,12.73
2023-03-06T08:26:19.537Z,12.20
2023-03-06T08:28:48.142Z,11.03
2023-03-06T08:31:25.698Z,11.60
2023-03-06T08:33:54.212Z,11.00
2023-03-06T08:36:23.940Z,9.37
2023-03-06T08:38:52.554Z,14.50
2023-03-06T08:41:20.791Z,11.33
2023-03-06T08:43:49.277Z,9.63
2023-03-06T08:46:18.782Z,8.37
2023-03-06T08:48:47.703Z,9.33
2023-03-06T08:51:16.310Z,9.13
2023-03-06T08:53:45.984Z,8.93
2023-03-06T08:56:18.716Z,10.43
2023-03-06T08:58:47.341Z,8.50
2023-03-06T09:01:16.625Z,7.23
2023-03-06T09:03:44.729Z,10.20
2023-03-06T09:06:13.281Z,8.00
2023-03-06T09:08:43.141Z,7.90
2023-03-06T09:11:13.403Z,8.67
2023-03-06T09:13:41.935Z,8.53
2023-03-06T09:16:10.213Z,6.07
2023-03-06T09:18:38.706Z,6.73
2023-03-06T09:21:08.166Z,6.80
2023-03-06T09:23:37.030Z,7.10
2023-03-06T09:26:05.275Z,7.60
2023-03-06T09:28:36.652Z,8.17
2023-03-06T09:31:09.252Z,7.33
2023-03-06T09:33:37.688Z,7.80
2023-03-06T09:36:06.830Z,7.60
2023-03-06T09:38:35.482Z,7.87
2023-03-06T09:43:40.128Z,8.77
2023-03-06T09:46:19.979Z,7.93
2023-03-06T09:49:00.603Z,8.50
2023-03-06T09:51:36.366Z,8.73
2023-03-06T09:54:10.460Z,8.00
2023-03-06T09:56:38.807Z,7.83
2023-03-06T09:59:14.191Z,8.00
2023-03-06T10:01:44.910Z,8.60
2023-03-06T10:04:29.646Z,8.80
2023-03-06T10:07:02.604Z,7.63
2023-03-06T10:09:39.420Z,7.80
2023-03-06T10:12:22.982Z,8.80
2023-03-06T10:15:15.150Z,7.80
2023-03-06T10:17:44.275Z,7.40
2023-03-06T10:20:22.640Z,6.87
2023-03-06T10:23:10.500Z,6.90
2023-03-06T10:25:47.442Z,7.40
2023-03-06T10:28:18.937Z,7.93
2023-03-06T10:30:55.668Z,6.20
2023-03-06T10:33:34.730Z,7.10
2023-03-06T10:36:03.027Z,6.40
2023-03-06T10:38:37.666Z,6.90
2023-03-06T10:41:09.566Z,6.60
2023-03-06T10:43:39.728Z,8.77
2023-03-06T10:46:11.603Z,7.63
2023-03-06T10:48:42.327Z,6.10
2023-03-06T10:51:18.465Z,7.67
2023-03-06T10:53:52.283Z,7.70
2023-03-06T10:56:32.163Z,7.37
2023-03-06T10:59:08.847Z,9.50
2023-03-06T11:01:38.352Z,10.23
2023-03-06T11:04:22.863Z,9.03
2023-03-06T11:07:07.159Z,6.13
2023-03-06T11:09:36.427Z,6.40
2023-03-06T11:12:33.083Z,6.70
2023-03-06T11:15:25.423Z,7.43
2023-03-06T11:18:00.653Z,5.20
2023-03-06T11:20:48.564Z,5.40
2023-03-06T11:23:21.637Z,8.10
2023-03-06T11:25:56.127Z,6.70
2023-03-06T11:28:29.819Z,5.17
2023-03-06T11:31:03.145Z,5.00
2023-03-06T11:33:39.717Z,6.30
2023-03-06T11:36:15.260Z,8.47
2023-03-06T11:38:49.731Z,4.93
2023-03-06T11:41:27.725Z,4.50
2023-03-06T11:44:04.806Z,5.40
2023-03-06T11:46:38.708Z,7.87
2023-03-06T11:49:17.900Z,5.57
2023-03-06T11:51:50.979Z,5.40
2023-03-06T11:54:19.057Z,5.27
2023-03-06T11:56:53.901Z,4.63
2023-03-06T12:00:01.820Z,4.70
2023-03-06T12:02:51.480Z,5.10
2023-03-06T12:05:37.086Z,4.87
2023-03-06T12:08:18.540Z,5.03
2023-03-06T12:10:51.819Z,5.10
2023-03-06T12:13:33.082Z,4.70
2023-03-06T12:16:26.616Z,4.20
2023-03-06T12:19:00.477Z,5.53
2023-03-06T12:21:42.125Z,4.10
2023-03-06T12:24:30.289Z,7.90
2023-03-06T12:27:13.408Z,4.13
2023-03-06T12:30:24.803Z,4.33
2023-03-06T12:33:04.830Z,4.73
2023-03-06T12:35:58.781Z,4.60
2023-03-06T12:39:05.824Z,4.40
2023-03-06T12:41:44.172Z,5.40
2023-03-06T12:44:51.607Z,4.23
2023-03-06T12:47:22.730Z,4.80
2023-03-06T12:49:55.683Z,5.00
2023-03-06T12:52:30.174Z,3.60
2023-03-06T12:55:02.027Z,6.53
2023-03-06T12:57:30.342Z,4.53
2023-03-06T12:59:58.466Z,5.23
2023-03-06T13:02:59.355Z,5.00
2023-03-06T13:05:51.490Z,4.30
2023-03-06T13:08:38.003Z,5.20
2023-03-06T13:11:28.252Z,7.10
2023-03-06T13:13:57.365Z,3.83
2023-03-06T13:16:31.186Z,3.90
2023-03-06T13:19:12.728Z,6.43
2023-03-06T13:22:04.653Z,6.17
2023-03-06T13:24:35.621Z,4.40
2023-03-06T13:27:09.231Z,4.60
2023-03-06T13:30:06.174Z,3.10
2023-03-06T13:32:38.226Z,5.43
2023-03-06T13:35:48.431Z,4.13
2023-03-06T13:38:35.845Z,5.10
2023-03-06T13:41:44.413Z,4.60
2023-03-06T13:44:40.786Z,3.73
2023-03-06T13:47:20.561Z,3.60
2023-03-06T13:49:49.628Z,6.90
2023-03-06T13:52:30.499Z,4.50
2023-03-06T13:55:06.878Z,3.73
2023-03-06T13:57:47.107Z,4.10
2023-03-06T14:00:44.087Z,4.20
2023-03-06T14:03:49.948Z,3.90
2023-03-06T14:06:49.255Z,3.63
2023-03-06T14:09:25.570Z,4.80
2023-03-06T14:11:57.630Z,6.80
2023-03-06T14:14:33.380Z,3.87
2023-03-06T14:17:05.297Z,3.87
2023-03-06T14:19:40.490Z,3.70
2023-03-06T14:22:17.513Z,3.50
2023-03-06T14:24:54.910Z,3.90
2023-03-06T14:27:39.367Z,4.13
2023-03-06T14:30:09.672Z,5.07
2023-03-06T14:32:40.960Z,4.80
2023-03-06T14:35:22.002Z,4.43
2023-03-06T14:37:53.040Z,4.53
2023-03-06T14:40:27.051Z,3.93
2023-03-06T14:43:22.800Z,4.10
2023-03-06T14:45:52.891Z,3.53
2023-03-06T14:48:23.074Z,3.67
2023-03-06T14:50:53.575Z,3.60
2023-03-06T14:53:25.274Z,4.43
2023-03-06T14:55:55.913Z,4.10
2023-03-06T14:58:29.980Z,6.73
2023-03-06T15:01:01.289Z,3.73
2023-03-06T15:03:43.969Z,4.50
2023-03-06T15:06:15.890Z,2.90
2023-03-06T15:08:46.958Z,6.40
2023-03-06T15:11:15.483Z,4.47
2023-03-06T15:13:43.645Z,4.87
2023-03-06T15:16:27.456Z,3.80
2023-03-06T15:18:59.652Z,3.00
2023-03-06T15:21:29.256Z,3.70
2023-03-06T15:23:58.349Z,3.90
2023-03-06T15:26:29.589Z,4.40
2023-03-06T15:29:12.850Z,4.80
2023-03-06T15:31:42.371Z,4.97
2023-03-06T15:34:24.286Z,3.93
2023-03-06T15:36:55.397Z,3.40
2023-03-06T15:39:38.246Z,6.57
2023-03-06T15:42:19.407Z,3.87
2023-03-06T15:44:53.101Z,6.23
2023-03-06T15:47:21.509Z,6.53
2023-03-06T15:49:53.032Z,5.83
2023-03-06T15:52:21.801Z,4.20
2023-03-06T15:54:50.374Z,6.03
2023-03-06T15:57:25.870Z,5.40
2023-03-06T15:59:54.410Z,3.60
2023-03-06T16:02:24.230Z,4.23
2023-03-06T16:04:53.931Z,4.73
2023-03-06T16:07:22.254Z,4.10
2023-03-06T16:09:50.288Z,3.40
2023-03-06T16:12:20.073Z,5.47
2023-03-06T16:14:49.008Z,3.50
2023-03-06T16:17:18.165Z,3.50
2023-03-06T16:19:46.213Z,4.13
2023-03-06T16:22:15.700Z,3.87
2023-03-06T16:24:43.891Z,4.53
2023-03-06T16:27:18.761Z,3.53
2023-03-06T16:29:46.773Z,5.20
2023-03-06T16:32:14.922Z,5.03
2023-03-06T16:34:43.028Z,3.53
2023-03-06T16:37:13.790Z,5.73
2023-03-06T16:39:43.207Z,4.40
2023-03-06T16:42:11.432Z,4.10
2023-03-06T16:44:39.499Z,3.83
2023-03-06T16:47:11.133Z,5.50
2023-03-06T16:49:39.214Z,5.63
2023-03-06T16:52:08.483Z,3.80
2023-03-06T16:54:36.623Z,3.57
2023-03-06T16:57:06.097Z,4.03
2023-03-06T16:59:34.120Z,3.60
2023-03-06T17:02:02.166Z,5.17
2023-03-06T17:04:30.184Z,4.13
2023-03-06T17:06:58.208Z,5.50
2023-03-06T17:09:26.192Z,5.03
2023-03-06T17:11:54.200Z,3.63
2023-03-06T17:14:23.634Z,4.10
2023-03-06T17:16:52.020Z,4.10
2023-03-06T17:19:20.126Z,4.37
2023-03-06T17:21:48.152Z,3.97
2023-03-06T17:24:16.210Z,4.07
2023-03-06T17:26:45.343Z,3.80
2023-03-06T17:29:13.537Z,4.63
2023-03-06T17:31:42.978Z,4.73
2023-03-06T17:34:10.993Z,4.07
2023-03-06T17:36:39.016Z,4.40
2023-03-06T17:39:07.066Z,5.13
2023-03-06T17:41:35.106Z,4.40
2023-03-06T17:44:03.166Z,4.63
2023-03-06T17:46:32.398Z,5.13
2023-03-06T17:49:01.918Z,3.77
2023-03-06T17:51:29.960Z,5.60
2023-03-06T17:53:57.954Z,6.47
2023-03-06T17:56:25.962Z,5.10
2023-03-06T17:58:54.030Z,8.77
2023-03-06T18:01:27.200Z,5.93
2023-03-06T18:03:55.586Z,9.23
2023-03-06T18:06:27.489Z,10.00
2023-03-06T18:08:55.687Z,7.97
2023-03-06T18:11:24.228Z,8.67
2023-03-06T18:13:52.520Z,8.53
2023-03-06T18:16:24.376Z,8.03
2023-03-06T18:18:53.386Z,4.60
2023-03-06T18:21:22.089Z,6.30
2023-03-06T18:23:51.854Z,6.50
2023-03-06T18:26:22.016Z,7.43
2023-03-06T18:28:52.797Z,6.60
2023-03-06T18:31:24.257Z,4.60
2023-03-06T18:33:53.321Z,5.30
2023-03-06T18:36:23.536Z,5.00
2023-03-06T18:38:53.233Z,8.83
2023-03-06T18:41:22.510Z,7.13
2023-03-06T18:43:52.739Z,6.00
2023-03-06T18:46:20.908Z,5.50
2023-03-06T18:48:48.929Z,32.57
2023-03-06T18:51:17.745Z,9.80
2023-03-06T18:53:45.744Z,9.10
2023-03-06T18:56:18.119Z,9.13
2023-03-06T18:58:46.484Z,8.23
2023-03-06T19:01:14.846Z,5.60
2023-03-06T19:03:43.034Z,7.10
2023-03-06T19:06:13.538Z,6.07
2023-03-06T19:08:42.823Z,7.60
2023-03-06T19:11:12.852Z,5.50
2023-03-06T19:13:42.357Z,7.37
2023-03-06T19:16:17.016Z,5.40
2023-03-06T19:18:45.144Z,5.13
2023-03-06T19:21:15.671Z,4.33
2023-03-06T19:23:43.965Z,4.43
2023-03-06T19:26:12.127Z,5.20
2023-03-06T19:28:43.012Z,4.47
2023-03-06T19:31:12.561Z,9.20
2023-03-06T19:33:40.877Z,5.03
2023-03-06T19:36:11.425Z,6.80
2023-03-06T19:38:39.796Z,5.50
2023-03-06T19:41:11.807Z,4.87
2023-03-06T19:43:40.261Z,4.43
2023-03-06T19:46:12.894Z,6.80
2023-03-06T19:48:41.161Z,6.10
2023-03-06T19:51:09.360Z,7.40
2023-03-06T19:53:38.717Z,5.30
2023-03-06T19:56:08.233Z,4.43
2023-03-06T19:58:36.642Z,5.77
2023-03-06T20:01:07.421Z,4.90
2023-03-06T20:03:36.994Z,6.30
2023-03-06T20:06:08.983Z,7.10
2023-03-06T20:08:37.142Z,5.90
2023-03-06T20:11:05.711Z,5.80
2023-03-06T20:13:33.791Z,6.67
2023-03-06T20:16:04.164Z,5.30
2023-03-06T20:18:32.218Z,10.90
2023-03-06T20:21:03.526Z,4.97
2023-03-06T20:23:32.835Z,8.60
2023-03-06T20:26:03.089Z,6.23
2023-03-06T20:28:31.228Z,6.73
2023-03-06T20:30:59.434Z,5.93
2023-03-06T20:33:27.805Z,5.73
2023-03-06T20:35:55.859Z,6.67
2023-03-06T20:38:25.211Z,6.57
2023-03-06T20:40:55.650Z,5.50
2023-03-06T20:43:25.659Z,6.57
2023-03-06T20:45:58.689Z,5.83
2023-03-06T20:48:26.755Z,7.40
2023-03-06T20:51:02.518Z,7.10
2023-03-06T20:53:32.072Z,5.87
2023-03-06T20:56:00.115Z,7.47
2023-03-06T20:58:30.111Z,6.70
2023-03-06T21:00:59.900Z,7.60
2023-03-06T21:03:29.187Z,6.30
2023-03-06T21:05:57.237Z,9.67
2023-03-06T21:08:25.739Z,7.93
2023-03-06T21:10:55.215Z,7.53
2023-03-06T21:13:23.209Z,8.13
2023-03-06T21:15:51.246Z,10.37
2023-03-06T21:18:19.377Z,8.10
2023-03-06T21:20:47.416Z,8.67
2023-03-06T21:23:15.441Z,8.60
2023-03-06T21:25:48.749Z,9.33
2023-03-06T21:28:19.097Z,9.10
2023-03-06T21:30:47.712Z,9.30
2023-03-06T21:33:16.378Z,9.50
2023-03-06T21:35:47.940Z,10.60
2023-03-06T21:38:16.239Z,11.03
2023-03-06T21:40:45.986Z,12.23
2023-03-06T21:43:15.717Z,12.40
2023-03-06T21:45:46.374Z,13.90
2023-03-06T21:48:14.806Z,14.53
2023-03-06T21:50:43.301Z,17.20
2023-03-06T21:53:11.359Z,17.43
2023-03-06T21:55:41.309Z,17.00
2023-03-06T21:58:09.396Z,17.00
2023-03-06T22:00:37.633Z,19.30
2023-03-06T22:03:07.130Z,21.00
2023-03-06T22:05:35.486Z,19.90
2023-03-06T22:08:03.742Z,21.50
2023-03-06T22:10:31.751Z,22.50
2023-03-06T22:12:59.811Z,22.20
2023-03-06T22:15:27.807Z,24.43
2023-03-06T22:17:55.830Z,24.60
2023-03-06T22:20:25.418Z,27.83
2023-03-06T22:22:53.434Z,29.70
2023-03-06T22:25:21.454Z,27.03
2023-03-06T22:27:49.506Z,32.73
2023-03-06T22:30:18.356Z,30.57
2023-03-06T22:32:46.412Z,32.03
2023-03-06T22:35:14.529Z,36.07
2023-03-06T22:37:43.962Z,35.43
2023-03-06T22:40:12.993Z,38.53
2023-03-06T22:42:41.024Z,39.37
2023-03-06T22:45:10.306Z,36.43
2023-03-06T22:47:41.411Z,38.23
2023-03-06T22:50:11.074Z,38.97
2023-03-06T22:52:39.399Z,39.80
2023-03-06T22:55:10.817Z,41.20
2023-03-06T22:57:38.886Z,43.60
2023-03-06T23:00:08.365Z,42.27
2023-03-06T23:02:36.428Z,44.20
2023-03-06T23:05:04.748Z,44.70
2023-03-06T23:07:32.835Z,44.90
2023-03-06T23:10:03.718Z,44.30
2023-03-06T23:12:51.981Z,48.07
2023-03-06T23:15:38.818Z,52.30
2023-03-06T23:18:25.162Z,47.20
2023-03-06T23:21:13.094Z,53.07
2023-03-06T23:23:59.541Z,53.63
2023-03-06T23:26:30.021Z,52.47
2023-03-06T23:28:59.467Z,52.03
2023-03-06T23:31:29.328Z,55.80
2023-03-06T23:33:58.831Z,52.87
2023-03-06T23:36:27.019Z,50.47
2023-03-06T23:38:55.102Z,51.73
2023-03-06T23:41:24.686Z,57.93
2023-03-06T23:43:55.029Z,51.50
2023-03-06T23:46:24.986Z,52.50
2023-03-06T23:48:53.453Z,55.97
2023-03-06T23:51:23.232Z,51.50
2023-03-06T23:53:55.480Z,56.60
2023-03-06T23:56:24.148Z,58.20
2023-03-06T23:58:52.191Z,53.50
